SWR438A EGLL-LSZH
Flight info
| Callsign | SWR438A |
|---|---|
| Flight time | N/A |
| Altitude | 29000 |
| Route | DET L6 DVR UL9 KONAN DCT KOK DCT SISGA DCT RITAX DCT KRH M150 LAMGO T721 SUL T721 RILAX |
| Aircraft | B77W/H-SDE1E2E3FGHIJ2J3J4J5M1RWXY/LB1D1 |
Departure
| Time | 2026-05-04 18:08 |
|---|---|
| Airport | London Heathrow Airport (EGLL) |
Arrival
| Time | N/A |
|---|---|
| Airport | Zürich Airport (LSZH) |
| Time | Latitude | Longitude | Altitude | Speed | Heading |
|---|---|---|---|---|---|
| 2026-05-04 17:38 | 51.46841 | -0.44880 | 84 ft | 0 kts | 359° |
| 2026-05-04 17:53 | 51.46840 | -0.44880 | 84 ft | 0 kts | 359° |
| 2026-05-04 17:54 | 51.46836 | -0.44880 | 84 ft | 2 kts | 359° |
| 2026-05-04 17:54 | 51.46822 | -0.44879 | 84 ft | 2 kts | 359° |
| 2026-05-04 17:54 | 51.46812 | -0.44879 | 84 ft | 2 kts | 357° |
| 2026-05-04 17:55 | 51.46798 | -0.44875 | 84 ft | 2 kts | 341° |
| 2026-05-04 17:55 | 51.46784 | -0.44866 | 84 ft | 2 kts | 328° |
| 2026-05-04 17:55 | 51.46772 | -0.44851 | 84 ft | 2 kts | 316° |
| 2026-05-04 17:55 | 51.46762 | -0.44834 | 84 ft | 2 kts | 303° |
| 2026-05-04 17:56 | 51.46756 | -0.44813 | 84 ft | 2 kts | 291° |
| 2026-05-04 17:56 | 51.46751 | -0.44791 | 84 ft | 2 kts | 279° |
| 2026-05-04 17:56 | 51.46750 | -0.44772 | 84 ft | 1 kts | 269° |
| 2026-05-04 17:56 | 51.46751 | -0.44770 | 84 ft | 0 kts | 269° |
| 2026-05-04 17:59 | 51.46750 | -0.44771 | 84 ft | 1 kts | 269° |
| 2026-05-04 17:59 | 51.46750 | -0.44811 | 84 ft | 4 kts | 270° |
| 2026-05-04 17:59 | 51.46750 | -0.44960 | 84 ft | 7 kts | 270° |
| 2026-05-04 18:00 | 51.46743 | -0.45041 | 84 ft | 6 kts | 233° |
| 2026-05-04 18:00 | 51.46699 | -0.45070 | 84 ft | 6 kts | 194° |
| 2026-05-04 18:00 | 51.46667 | -0.45124 | 84 ft | 7 kts | 256° |
| 2026-05-04 18:00 | 51.46663 | -0.45235 | 84 ft | 13 kts | 269° |
| 2026-05-04 18:01 | 51.46661 | -0.45417 | 84 ft | 19 kts | 270° |
| 2026-05-04 18:01 | 51.46660 | -0.45670 | 84 ft | 25 kts | 270° |
| 2026-05-04 18:01 | 51.46660 | -0.45979 | 84 ft | 30 kts | 270° |
| 2026-05-04 18:02 | 51.46658 | -0.46666 | 84 ft | 29 kts | 270° |
| 2026-05-04 18:02 | 51.46656 | -0.46981 | 84 ft | 27 kts | 270° |
| 2026-05-04 18:02 | 51.46656 | -0.47281 | 84 ft | 26 kts | 270° |
| 2026-05-04 18:02 | 51.46654 | -0.47568 | 84 ft | 24 kts | 270° |
| 2026-05-04 18:03 | 51.46654 | -0.47831 | 84 ft | 23 kts | 270° |
| 2026-05-04 18:03 | 51.46653 | -0.48022 | 84 ft | 10 kts | 269° |
| 2026-05-04 18:03 | 51.46652 | -0.48081 | 84 ft | 0 kts | 269° |
| 2026-05-04 18:05 | 51.46652 | -0.48086 | 84 ft | 3 kts | 269° |
| 2026-05-04 18:05 | 51.46652 | -0.48192 | 84 ft | 14 kts | 270° |
| 2026-05-04 18:05 | 51.46651 | -0.48350 | 84 ft | 13 kts | 270° |
| 2026-05-04 18:05 | 51.46651 | -0.48502 | 84 ft | 13 kts | 270° |
| 2026-05-04 18:06 | 51.46616 | -0.48756 | 84 ft | 11 kts | 208° |
| 2026-05-04 18:06 | 51.46542 | -0.48785 | 84 ft | 10 kts | 177° |
| 2026-05-04 18:06 | 51.46486 | -0.48718 | 84 ft | 10 kts | 115° |
| 2026-05-04 18:07 | 51.46478 | -0.48573 | 84 ft | 19 kts | 90° |
| 2026-05-04 18:07 | 51.46479 | -0.48027 | 84 ft | 87 kts | 90° |
| 2026-05-04 18:07 | 51.46483 | -0.46635 | 85 ft | 159 kts | 90° |
| 2026-05-04 18:07 | 51.46479 | -0.44624 | 355 ft | 197 kts | 89° |
| 2026-05-04 18:08 | 51.46474 | -0.42405 | 1153 ft | 201 kts | 86° |
| 2026-05-04 18:08 | 51.46347 | -0.40115 | 1665 ft | 218 kts | 105° |
| 2026-05-04 18:08 | 51.45622 | -0.37877 | 2163 ft | 239 kts | 127° |
| 2026-05-04 18:08 | 51.44471 | -0.35842 | 2688 ft | 254 kts | 122° |
| 2026-05-04 18:09 | 51.43143 | -0.30582 | 4209 ft | 262 kts | 103° |
| 2026-05-04 18:09 | 51.42299 | -0.24871 | 5701 ft | 272 kts | 101° |
| 2026-05-04 18:10 | 51.41895 | -0.21888 | 6049 ft | 278 kts | 101° |
| 2026-05-04 18:10 | 51.41481 | -0.18852 | 6854 ft | 279 kts | 101° |
| 2026-05-04 18:10 | 51.41071 | -0.15872 | 7705 ft | 278 kts | 102° |
| 2026-05-04 18:10 | 51.40653 | -0.12834 | 8418 ft | 283 kts | 102° |
| 2026-05-04 18:11 | 51.40230 | -0.09767 | 9183 ft | 285 kts | 102° |
| 2026-05-04 18:11 | 51.39805 | -0.06692 | 9879 ft | 288 kts | 102° |
| 2026-05-04 18:11 | 51.39367 | -0.03535 | 10586 ft | 292 kts | 102° |
| 2026-05-04 18:11 | 51.38921 | -0.00320 | 11098 ft | 304 kts | 102° |
| 2026-05-04 18:12 | 51.38454 | 0.03030 | 11618 ft | 316 kts | 102° |
| 2026-05-04 18:12 | 51.37963 | 0.06553 | 12147 ft | 330 kts | 102° |
| 2026-05-04 18:12 | 51.37453 | 0.10200 | 12675 ft | 344 kts | 102° |
| 2026-05-04 18:12 | 51.36921 | 0.13991 | 13199 ft | 360 kts | 102° |
| 2026-05-04 18:13 | 51.36363 | 0.17966 | 13725 ft | 376 kts | 102° |
| 2026-05-04 18:13 | 51.35782 | 0.22085 | 14257 ft | 387 kts | 102° |
| 2026-05-04 18:13 | 51.34582 | 0.30562 | 15332 ft | 393 kts | 102° |
| 2026-05-04 18:14 | 51.33979 | 0.34801 | 15857 ft | 395 kts | 102° |
| 2026-05-04 18:14 | 51.33366 | 0.39102 | 16364 ft | 403 kts | 103° |
| 2026-05-04 18:14 | 51.32742 | 0.43463 | 17316 ft | 409 kts | 103° |
| 2026-05-04 18:15 | 51.31477 | 0.52269 | 19460 ft | 412 kts | 104° |
| 2026-05-04 18:15 | 51.30166 | 0.61300 | 20985 ft | 429 kts | 105° |
| 2026-05-04 18:15 | 51.29348 | 0.65890 | 21840 ft | 434 kts | 108° |
| 2026-05-04 18:16 | 51.28478 | 0.70550 | 22671 ft | 440 kts | 109° |
| 2026-05-04 18:16 | 51.27601 | 0.75255 | 23353 ft | 448 kts | 109° |
| 2026-05-04 18:16 | 51.26708 | 0.80058 | 24043 ft | 456 kts | 108° |
| 2026-05-04 18:17 | 51.24912 | 0.89738 | 25750 ft | 462 kts | 108° |
| 2026-05-04 18:17 | 51.24004 | 0.94627 | 26559 ft | 465 kts | 108° |
| 2026-05-04 18:17 | 51.22139 | 1.04640 | 27847 ft | 478 kts | 108° |
| 2026-05-04 18:18 | 51.21184 | 1.09750 | 28512 ft | 484 kts | 108° |
| 2026-05-04 18:18 | 51.20223 | 1.14884 | 29234 ft | 487 kts | 108° |
| 2026-05-04 18:18 | 51.19264 | 1.19997 | 30105 ft | 487 kts | 108° |
| 2026-05-04 18:18 | 51.18298 | 1.25131 | 31154 ft | 482 kts | 108° |
| 2026-05-04 18:19 | 51.16469 | 1.35285 | 32730 ft | 479 kts | 103° |
| 2026-05-04 18:19 | 51.16010 | 1.40496 | 33255 ft | 483 kts | 97° |
| 2026-05-04 18:19 | 51.15752 | 1.45801 | 33799 ft | 484 kts | 96° |
| 2026-05-04 18:20 | 51.15505 | 1.51172 | 34425 ft | 482 kts | 96° |
| 2026-05-04 18:20 | 51.15256 | 1.56471 | 34898 ft | 483 kts | 96° |
| 2026-05-04 18:20 | 51.14745 | 1.67090 | 34991 ft | 482 kts | 97° |
| 2026-05-04 18:21 | 51.14222 | 1.77646 | 34994 ft | 481 kts | 97° |
| 2026-05-04 18:21 | 51.13685 | 1.88235 | 34993 ft | 481 kts | 97° |
| 2026-05-04 18:22 | 51.13136 | 1.98825 | 34995 ft | 481 kts | 97° |
| 2026-05-04 18:22 | 51.12582 | 2.09326 | 34993 ft | 481 kts | 97° |
| 2026-05-04 18:23 | 51.12012 | 2.19938 | 34991 ft | 482 kts | 97° |
| 2026-05-04 18:23 | 51.11432 | 2.30549 | 34982 ft | 482 kts | 97° |
| 2026-05-04 18:24 | 51.10842 | 2.41162 | 34984 ft | 484 kts | 98° |
| 2026-05-04 18:24 | 51.10247 | 2.51704 | 34980 ft | 484 kts | 98° |
| 2026-05-04 18:25 | 51.09473 | 2.62260 | 34973 ft | 480 kts | 105° |
| 2026-05-04 18:25 | 51.07165 | 2.72003 | 34967 ft | 472 kts | 121° |
| 2026-05-04 18:26 | 51.04122 | 2.81278 | 34961 ft | 472 kts | 121° |
| 2026-05-04 18:26 | 51.01085 | 2.90436 | 34960 ft | 471 kts | 121° |